Pagrindinis puslapis
METAR-TAF:

METAR-TAF

Oro uostai :

Pekanbaru, Indonezija

platuma: 00-28N, ilguma: 101-27E, Aukštis: 31 m

Dabartinis oras

Ataskaita buvo paskelbta 5 valandos ir 6 minutes, ne 03:30 UTC
Vėjas 10 kt iš Šiaurės Rytų
Temperatūra 30°C
Drėgmė 62%
Slėgis 1013 hPa
Matomumas: 9000 m
Išsisklaidę debesys ne aukštis 1200 ft

METAR: WIBB 230330Z 05010KT 9000 SCT012 30/22 Q1013

Laikas: 15:36 (08:36 UTC)


TAF: trūkstamas

Orai ataskaitas ir orų prognozės (METAR, TAF).

turimą stotys yra geltonos ir raudonos taškus žemėlapyje.

Perkelti pele per norėdami pamatyti stoties vardą.

Tada spustelėkite, norėdami matyti oro stebėjimo ir prognozės.

Norėdami pakeisti žemėlapį: spustelėkite ant žalios mygtukų su juodo kryžiaus žemyn,; žalią mygtuką su brūkšneliu, jei norite nutolinti; arba žalių rodyklių gretimoms žemėlapius.


METAR-TAF: